Anthony, Indiana
Current Conditions -  °F | °C
As of 5:06 PM on Friday 31 Oct 2014 (Local Time) from KMIE Reporting Station
Overcast Overcast  
Wind Chill: 33°   Ceiling: 3900
Heat Index: 41°   Visibility: 10mi
Dew Point: 37°   Wind: 15mph
Humidity: 86%   Direction: 320°NW
Pressure: 29.94"   Gusts: NA
Location:  40.2763°N, 85.3769°W
Report Text: KMIE 312106Z 32013KT 10SM SCT018 BKN039 OVC055 05/03 A2994 RMK AO2 T00500028
Loading
Personal Weather Stations






























Interactive Weather Map
Tropical Storm Tracking
New forecast layout! Learn more

10-Day Weather Forecast

Advertisements
Track Severe Weather on mobile